createdAt,value
2022-10-18T00:00:13.063Z,28.63
2022-10-18T00:02:39.953Z,36.10
2022-10-18T00:05:07.128Z,37.35
2022-10-18T00:07:34.142Z,36.85
2022-10-18T00:10:01.050Z,35.97
2022-10-18T00:12:27.892Z,37.55
2022-10-18T00:14:54.796Z,42.60
2022-10-18T00:17:21.670Z,37.10
2022-10-18T00:19:50.476Z,41.33
2022-10-18T00:22:17.368Z,43.20
2022-10-18T00:24:44.505Z,34.70
2022-10-18T00:27:11.380Z,38.75
2022-10-18T00:29:38.231Z,39.17
2022-10-18T00:32:05.202Z,40.88
2022-10-18T00:34:32.139Z,36.78
2022-10-18T00:36:59.135Z,39.95
2022-10-18T00:39:25.956Z,43.75
2022-10-18T00:41:52.866Z,40.60
2022-10-18T00:44:25.896Z,46.35
2022-10-18T00:46:56.925Z,45.97
2022-10-18T00:49:37.070Z,45.58
2022-10-18T00:52:09.270Z,44.95
2022-10-18T00:54:39.081Z,48.15
2022-10-18T00:57:06.993Z,51.55
2022-10-18T00:59:34.950Z,51.63
2022-10-18T01:02:02.896Z,53.85
2022-10-18T01:04:29.795Z,57.65
2022-10-18T01:07:18.121Z,47.85
2022-10-18T01:09:54.039Z,50.42
2022-10-18T01:12:29.728Z,54.15
2022-10-18T01:15:15.147Z,48.08
2022-10-18T01:18:25.277Z,50.13
2022-10-18T01:21:04.448Z,51.75
2022-10-18T01:24:16.021Z,53.28
2022-10-18T01:26:48.699Z,49.50
2022-10-18T01:29:49.540Z,48.47
2022-10-18T01:32:21.264Z,53.53
2022-10-18T01:34:52.486Z,53.20
2022-10-18T01:37:21.794Z,54.95
2022-10-18T01:39:51.283Z,49.00
2022-10-18T01:42:21.079Z,55.13
2022-10-18T01:44:50.682Z,57.22
2022-10-18T01:47:19.295Z,63.33
2022-10-18T01:49:46.419Z,56.10
2022-10-18T01:52:14.840Z,57.00
2022-10-18T01:54:51.047Z,54.60
2022-10-18T01:57:45.324Z,49.95
2022-10-18T02:00:22.814Z,44.35
2022-10-18T02:02:55.301Z,56.53
2022-10-18T02:05:51.206Z,51.60
2022-10-18T02:08:23.366Z,49.42
2022-10-18T02:11:00.554Z,48.78
2022-10-18T02:13:35.223Z,45.92
2022-10-18T02:16:07.904Z,47.28
2022-10-18T02:18:42.116Z,44.13
2022-10-18T02:21:13.787Z,45.95
2022-10-18T02:23:40.754Z,42.55
2022-10-18T02:26:07.949Z,42.70
2022-10-18T02:28:35.171Z,39.28
2022-10-18T02:31:14.858Z,39.85
2022-10-18T02:34:00.059Z,36.10
2022-10-18T02:36:50.539Z,37.33
2022-10-18T02:39:25.252Z,34.47
2022-10-18T02:41:54.455Z,37.42
2022-10-18T02:44:21.508Z,34.63
2022-10-18T02:46:48.891Z,33.53
2022-10-18T02:49:15.916Z,33.50
2022-10-18T02:51:42.757Z,29.73
2022-10-18T02:54:09.661Z,34.10
2022-10-18T02:56:36.856Z,29.17
2022-10-18T02:59:05.075Z,29.30
2022-10-18T03:01:33.243Z,29.88
2022-10-18T03:04:00.288Z,29.58
2022-10-18T03:06:27.131Z,30.15
2022-10-18T03:08:54.025Z,21.35
2022-10-18T03:11:21.049Z,25.90
2022-10-18T03:13:47.855Z,24.17
2022-10-18T03:16:14.781Z,21.95
2022-10-18T03:18:41.679Z,18.33
2022-10-18T03:21:09.156Z,18.92
2022-10-18T03:23:36.548Z,16.73
2022-10-18T03:26:03.527Z,14.50
2022-10-18T03:28:30.552Z,14.60
2022-10-18T03:31:02.591Z,13.38
2022-10-18T03:33:30.241Z,13.35
2022-10-18T03:35:57.094Z,7.15
2022-10-18T03:38:24.157Z,10.32
2022-10-18T03:40:51.149Z,9.98
2022-10-18T03:43:18.076Z,7.07
2022-10-18T03:45:44.940Z,7.00
2022-10-18T03:48:11.836Z,6.70
2022-10-18T03:50:38.983Z,6.43
2022-10-18T03:53:06.058Z,6.25
2022-10-18T03:55:32.873Z,5.88
2022-10-18T03:57:59.707Z,5.28
2022-10-18T04:00:26.662Z,5.47
2022-10-18T04:02:55.827Z,5.63
2022-10-18T04:05:28.300Z,4.90
2022-10-18T04:07:55.198Z,5.55
2022-10-18T04:10:22.354Z,7.32
2022-10-18T04:12:49.438Z,4.25
2022-10-18T04:15:16.604Z,5.13
2022-10-18T04:17:43.622Z,5.00
2022-10-18T04:20:10.798Z,6.18
2022-10-18T04:22:37.685Z,3.83
2022-10-18T04:25:05.290Z,4.13
2022-10-18T04:27:32.490Z,3.78
2022-10-18T04:29:59.779Z,7.35
2022-10-18T04:32:28.940Z,5.05
2022-10-18T04:34:55.953Z,4.57
2022-10-18T04:37:23.318Z,5.55
2022-10-18T04:39:53.535Z,4.45
2022-10-18T04:42:21.745Z,4.75
2022-10-18T04:44:49.841Z,4.15
2022-10-18T04:47:18.754Z,7.70
2022-10-18T04:49:45.750Z,5.53
2022-10-18T04:52:14.267Z,5.85
2022-10-18T04:54:42.161Z,6.22
2022-10-18T04:57:09.255Z,6.10
2022-10-18T04:59:37.791Z,5.10
2022-10-18T05:02:05.178Z,5.70
2022-10-18T05:04:32.293Z,6.15
2022-10-18T05:06:59.254Z,6.88
2022-10-18T05:09:29.238Z,9.13
2022-10-18T05:11:56.068Z,5.32
2022-10-18T05:14:23.166Z,5.93
2022-10-18T05:16:50.114Z,4.88
2022-10-18T05:19:17.481Z,8.50
2022-10-18T05:21:44.777Z,5.28
2022-10-18T05:24:12.736Z,5.78
2022-10-18T05:26:40.464Z,5.68
2022-10-18T05:29:18.994Z,6.30
2022-10-18T05:31:52.400Z,6.88
2022-10-18T05:34:21.338Z,7.72
2022-10-18T05:36:51.568Z,5.53
2022-10-18T05:39:19.685Z,7.80
2022-10-18T05:42:32.675Z,6.30
2022-10-18T05:44:59.980Z,7.38
2022-10-18T05:59:12.620Z,8.13
2022-10-18T06:01:50.019Z,8.02
2022-10-18T06:05:01.330Z,9.60
2022-10-18T06:07:38.278Z,7.47
2022-10-18T06:17:01.158Z,9.00
2022-10-18T06:19:37.725Z,7.13
2022-10-18T06:22:05.687Z,7.38
2022-10-18T06:24:36.183Z,6.85
2022-10-18T06:27:28.138Z,9.82
2022-10-18T06:33:25.169Z,7.60
2022-10-18T06:35:59.575Z,9.43
2022-10-18T06:38:48.388Z,10.00
2022-10-18T06:42:12.738Z,6.90
2022-10-18T06:45:22.616Z,6.80
2022-10-18T06:48:30.768Z,6.32
2022-10-18T06:51:57.378Z,8.60
2022-10-18T06:55:29.475Z,6.63
2022-10-18T07:08:10.245Z,9.02
2022-10-18T07:18:57.986Z,3.95
2022-10-18T07:30:47.938Z,5.63
2022-10-18T07:33:21.850Z,6.88
2022-10-18T07:36:20.066Z,4.63
2022-10-18T07:38:52.615Z,6.97
2022-10-18T07:41:23.544Z,4.70
2022-10-18T07:46:55.473Z,6.05
2022-10-18T07:49:31.280Z,4.43
2022-10-18T07:52:03.807Z,4.35
2022-10-18T07:54:31.632Z,4.10
2022-10-18T07:56:59.148Z,4.50
2022-10-18T07:59:26.157Z,3.70
2022-10-18T08:01:54.087Z,7.70
2022-10-18T08:04:21.773Z,3.92
2022-10-18T08:06:52.038Z,5.72
2022-10-18T08:09:22.163Z,5.35
2022-10-18T08:11:49.048Z,3.65
2022-10-18T08:14:15.877Z,5.20
2022-10-18T08:16:59.615Z,4.78
2022-10-18T08:19:27.546Z,4.72
2022-10-18T08:21:57.626Z,5.47
2022-10-18T08:24:25.548Z,5.88
2022-10-18T08:27:24.025Z,4.00
2022-10-18T08:29:59.215Z,2.88
2022-10-18T08:32:32.126Z,5.00
2022-10-18T08:36:05.415Z,3.22
2022-10-18T08:38:42.771Z,2.65
2022-10-18T08:41:49.358Z,3.45
2022-10-18T08:44:31.161Z,3.58
2022-10-18T08:47:31.993Z,4.28
2022-10-18T08:50:06.603Z,8.20
2022-10-18T08:53:24.581Z,5.40
2022-10-18T08:56:15.539Z,6.70
2022-10-18T08:58:47.398Z,5.00
2022-10-18T09:01:38.785Z,5.30
2022-10-18T09:05:10.435Z,2.78
2022-10-18T09:07:56.100Z,5.18
2022-10-18T09:10:52.553Z,4.55
2022-10-18T09:13:52.677Z,4.63
2022-10-18T09:16:56.430Z,4.07
2022-10-18T09:19:41.188Z,3.95
2022-10-18T09:22:17.196Z,7.88
2022-10-18T09:24:51.810Z,4.75
2022-10-18T09:27:20.886Z,7.28
2022-10-18T09:30:15.345Z,7.70
2022-10-18T09:33:14.571Z,4.10
2022-10-18T09:36:02.113Z,5.70
2022-10-18T09:42:31.880Z,6.65
2022-10-18T09:49:29.039Z,5.63
2022-10-18T09:51:59.768Z,3.00
2022-10-18T09:54:38.303Z,4.75
2022-10-18T09:57:12.187Z,4.93
2022-10-18T09:59:53.056Z,3.80
2022-10-18T10:02:40.443Z,7.07
2022-10-18T10:05:14.359Z,5.57
2022-10-18T10:07:48.897Z,6.82
2022-10-18T10:10:31.591Z,5.07
2022-10-18T10:13:22.351Z,4.80
2022-10-18T10:16:03.638Z,7.90
2022-10-18T10:18:39.435Z,4.43
2022-10-18T10:21:19.376Z,3.88
2022-10-18T10:24:06.561Z,7.75
2022-10-18T10:26:37.142Z,6.28
2022-10-18T10:29:17.630Z,5.55
2022-10-18T10:32:03.899Z,12.13
2022-10-18T10:34:32.123Z,4.20
2022-10-18T10:37:03.971Z,5.90
2022-10-18T10:39:36.679Z,4.85
2022-10-18T10:42:07.946Z,3.40
2022-10-18T10:45:07.536Z,3.88
2022-10-18T10:47:56.088Z,5.20
2022-10-18T10:50:29.033Z,3.90
2022-10-18T10:52:56.151Z,5.60
2022-10-18T10:55:35.484Z,2.58
2022-10-18T10:58:10.412Z,4.25
2022-10-18T11:00:42.392Z,6.10
2022-10-18T11:03:33.775Z,10.30
2022-10-18T11:06:01.949Z,4.80
2022-10-18T11:08:36.149Z,3.65
2022-10-18T11:11:26.673Z,5.43
2022-10-18T11:14:29.600Z,3.53
2022-10-18T11:17:27.966Z,4.20
2022-10-18T11:20:16.113Z,4.78
2022-10-18T11:23:06.611Z,3.08
2022-10-18T11:25:54.123Z,3.30
2022-10-18T11:28:30.393Z,4.88
2022-10-18T11:31:19.644Z,4.65
2022-10-18T11:34:17.528Z,8.10
2022-10-18T11:37:27.691Z,3.60
2022-10-18T11:40:21.207Z,7.45
2022-10-18T11:43:07.283Z,4.15
2022-10-18T11:45:59.984Z,4.68
2022-10-18T11:48:36.649Z,2.88
2022-10-18T11:51:34.011Z,3.72
2022-10-18T11:54:26.719Z,3.42
2022-10-18T11:56:59.916Z,2.88
2022-10-18T11:59:40.965Z,4.28
2022-10-18T12:02:29.514Z,7.28
2022-10-18T12:07:56.323Z,4.93
2022-10-18T12:10:37.731Z,7.03
2022-10-18T12:13:25.688Z,6.95
2022-10-18T12:15:52.918Z,3.17
2022-10-18T12:18:24.283Z,4.65
2022-10-18T12:20:57.707Z,5.70
2022-10-18T12:23:39.595Z,8.98
2022-10-18T12:26:10.860Z,6.95
2022-10-18T12:28:53.075Z,7.35
2022-10-18T12:31:32.291Z,5.50
2022-10-18T12:34:04.247Z,7.18
2022-10-18T12:36:46.602Z,5.88
2022-10-18T12:39:32.486Z,4.75
2022-10-18T12:42:32.280Z,4.35
2022-10-18T12:45:20.520Z,6.50
2022-10-18T12:47:47.649Z,3.58
2022-10-18T12:50:39.297Z,4.68
2022-10-18T12:53:16.104Z,10.73
2022-10-18T12:55:49.927Z,6.75
2022-10-18T12:58:23.893Z,4.80
2022-10-18T13:01:17.352Z,4.82
2022-10-18T13:07:47.772Z,4.72
2022-10-18T13:13:57.523Z,4.68
2022-10-18T13:16:46.586Z,3.75
2022-10-18T13:19:42.326Z,5.03
2022-10-18T13:22:39.441Z,4.18
2022-10-18T13:28:28.279Z,3.60
2022-10-18T13:31:19.529Z,8.02
2022-10-18T13:34:13.565Z,7.32
2022-10-18T13:36:56.932Z,6.05
2022-10-18T13:39:30.739Z,7.13
2022-10-18T13:42:10.048Z,3.55
2022-10-18T13:44:42.545Z,7.53
2022-10-18T13:47:13.943Z,3.83
2022-10-18T13:49:44.396Z,5.53
2022-10-18T13:52:36.978Z,4.25
2022-10-18T13:55:29.896Z,8.20
2022-10-18T13:58:21.149Z,6.70
2022-10-18T14:01:26.067Z,5.03
2022-10-18T14:04:27.894Z,5.55
2022-10-18T14:07:02.180Z,4.20
2022-10-18T14:09:44.436Z,3.20
2022-10-18T14:12:30.903Z,5.07
2022-10-18T14:15:14.653Z,6.27
2022-10-18T14:18:15.517Z,6.45
2022-10-18T14:21:12.405Z,4.72
2022-10-18T14:23:47.073Z,2.72
2022-10-18T14:26:19.310Z,3.38
2022-10-18T14:29:06.816Z,5.95
2022-10-18T14:31:36.208Z,6.43
2022-10-18T14:34:05.327Z,5.45
2022-10-18T14:36:42.013Z,4.57
2022-10-18T14:39:22.446Z,5.28
2022-10-18T14:41:55.205Z,6.70
2022-10-18T14:44:28.686Z,7.10
2022-10-18T14:47:16.957Z,5.68
2022-10-18T14:49:48.235Z,4.35
2022-10-18T14:52:26.238Z,5.43
2022-10-18T14:54:56.843Z,7.63
2022-10-18T14:57:33.396Z,7.45
2022-10-18T15:00:06.083Z,5.13
2022-10-18T15:02:39.382Z,3.50
2022-10-18T15:05:10.259Z,4.95
2022-10-18T15:07:38.746Z,5.35
2022-10-18T15:10:08.816Z,3.58
2022-10-18T15:12:51.202Z,6.25
2022-10-18T15:15:31.522Z,5.18
2022-10-18T15:18:00.584Z,6.38
2022-10-18T15:20:31.995Z,5.35
2022-10-18T15:23:22.874Z,2.60
2022-10-18T15:25:51.875Z,6.60
2022-10-18T15:28:36.365Z,7.47
2022-10-18T15:31:05.149Z,4.82
2022-10-18T15:33:36.206Z,3.72
2022-10-18T15:36:12.063Z,4.93
2022-10-18T15:38:45.119Z,5.60
2022-10-18T15:41:58.785Z,5.15
2022-10-18T15:44:34.934Z,3.42
2022-10-18T15:47:13.921Z,7.68
2022-10-18T15:49:47.384Z,5.05
2022-10-18T15:52:43.654Z,5.60
2022-10-18T15:55:33.429Z,5.20
2022-10-18T15:58:23.457Z,4.22
2022-10-18T16:00:52.610Z,5.03
2022-10-18T16:03:24.169Z,5.05
2022-10-18T16:06:00.541Z,5.00
2022-10-18T16:11:08.479Z,7.85
2022-10-18T16:13:36.920Z,6.85
2022-10-18T16:16:06.946Z,6.63
2022-10-18T16:18:34.674Z,6.85
2022-10-18T16:21:02.224Z,3.45
2022-10-18T16:23:29.757Z,6.75
2022-10-18T16:25:59.351Z,8.85
2022-10-18T16:28:26.971Z,8.75
2022-10-18T16:31:00.046Z,7.03
2022-10-18T16:33:27.642Z,5.88
2022-10-18T16:35:54.832Z,4.50
2022-10-18T16:38:32.562Z,8.20
2022-10-18T16:41:06.674Z,6.18
2022-10-18T16:43:35.510Z,8.02
2022-10-18T16:46:03.962Z,9.65
2022-10-18T16:48:31.153Z,8.82
2022-10-18T16:50:58.980Z,6.25
2022-10-18T16:53:26.777Z,9.88
2022-10-18T16:56:00.160Z,5.20
2022-10-18T16:58:29.318Z,6.78
2022-10-18T17:00:57.870Z,12.35
2022-10-18T17:03:26.305Z,7.57
2022-10-18T17:05:54.787Z,7.70
2022-10-18T17:08:25.407Z,8.88
2022-10-18T17:10:55.729Z,5.18
2022-10-18T17:13:24.089Z,8.40
2022-10-18T17:15:52.230Z,12.95
2022-10-18T17:18:23.177Z,9.00
2022-10-18T17:20:50.894Z,8.75
2022-10-18T17:23:18.210Z,11.13
2022-10-18T17:25:57.890Z,6.65
2022-10-18T17:28:35.295Z,9.85
2022-10-18T17:31:03.029Z,7.22
2022-10-18T17:33:30.131Z,5.78
2022-10-18T17:35:57.353Z,6.93
2022-10-18T17:38:24.505Z,8.68
2022-10-18T17:40:55.065Z,6.60
2022-10-18T17:43:23.493Z,11.98
2022-10-18T17:45:55.260Z,8.25
2022-10-18T17:48:22.909Z,6.50
2022-10-18T17:50:50.606Z,6.72
2022-10-18T17:53:22.739Z,13.10
2022-10-18T17:55:54.443Z,6.13
2022-10-18T17:58:21.724Z,7.22
2022-10-18T18:00:49.407Z,6.97
2022-10-18T18:03:18.086Z,6.18
2022-10-18T18:05:45.475Z,10.75
2022-10-18T18:08:12.606Z,9.90
2022-10-18T18:10:40.349Z,7.28
2022-10-18T18:13:07.828Z,7.65
2022-10-18T18:15:35.347Z,9.35
2022-10-18T18:18:03.306Z,11.23
2022-10-18T18:20:32.660Z,10.32
2022-10-18T18:23:00.341Z,9.70
2022-10-18T18:25:27.656Z,8.93
2022-10-18T18:27:55.297Z,6.85
2022-10-18T18:30:23.246Z,12.57
2022-10-18T18:32:50.468Z,14.52
2022-10-18T18:35:18.455Z,9.25
2022-10-18T18:37:49.986Z,12.77
2022-10-18T18:40:17.481Z,10.63
2022-10-18T18:42:46.043Z,10.70
2022-10-18T18:45:17.353Z,12.13
2022-10-18T18:47:45.389Z,12.48
2022-10-18T18:50:13.358Z,9.50
2022-10-18T18:52:40.645Z,12.27
2022-10-18T18:55:09.015Z,11.02
2022-10-18T18:57:36.510Z,10.32
2022-10-18T19:00:04.684Z,14.02
2022-10-18T19:02:31.628Z,12.95
2022-10-18T19:04:59.015Z,9.85
2022-10-18T19:07:26.274Z,14.32
2022-10-18T19:09:53.487Z,11.30
2022-10-18T19:12:21.444Z,12.07
2022-10-18T19:14:49.006Z,10.75
2022-10-18T19:17:16.647Z,14.23
2022-10-18T19:19:43.855Z,15.48
2022-10-18T19:22:11.488Z,14.05
2022-10-18T19:24:42.048Z,11.05
2022-10-18T19:27:12.912Z,12.73
2022-10-18T19:29:41.001Z,13.10
2022-10-18T19:32:12.375Z,14.90
2022-10-18T19:34:40.018Z,16.95
2022-10-18T19:37:06.907Z,14.65
2022-10-18T19:39:35.358Z,12.82
2022-10-18T19:42:05.277Z,13.23
2022-10-18T19:44:34.361Z,29.05
2022-10-18T19:47:01.635Z,14.70
2022-10-18T19:49:29.304Z,12.30
2022-10-18T19:51:57.145Z,18.10
2022-10-18T19:54:25.042Z,17.65
2022-10-18T19:56:52.533Z,15.00
2022-10-18T19:59:21.372Z,18.73
2022-10-18T20:01:48.645Z,20.98
2022-10-18T20:04:15.961Z,17.85
2022-10-18T20:06:44.244Z,16.92
2022-10-18T20:09:16.070Z,17.75
2022-10-18T20:11:46.550Z,14.10
2022-10-18T20:14:13.409Z,14.73
2022-10-18T20:16:40.602Z,25.90
2022-10-18T20:19:08.412Z,17.85
2022-10-18T20:21:36.543Z,19.55
2022-10-18T20:24:06.350Z,20.30
2022-10-18T20:26:34.820Z,17.88
2022-10-18T20:29:02.075Z,21.20
2022-10-18T20:31:31.298Z,21.17
2022-10-18T20:34:07.382Z,11.52
2022-10-18T20:36:35.437Z,17.17
2022-10-18T20:39:03.686Z,18.65
2022-10-18T20:41:39.906Z,18.80
2022-10-18T20:44:11.860Z,19.80
2022-10-18T20:46:39.559Z,14.18
2022-10-18T20:49:08.736Z,15.32
2022-10-18T20:51:36.011Z,19.17
2022-10-18T20:56:38.780Z,16.00
2022-10-18T20:59:09.692Z,23.23
2022-10-18T21:01:38.386Z,20.38
2022-10-18T21:04:08.025Z,18.60
2022-10-18T21:06:37.886Z,19.08
2022-10-18T21:09:07.818Z,19.85
2022-10-18T21:11:37.285Z,20.25
2022-10-18T21:14:04.755Z,18.75
2022-10-18T21:16:33.895Z,18.05
2022-10-18T21:19:16.494Z,18.67
2022-10-18T21:21:44.963Z,17.75
2022-10-18T21:24:13.118Z,15.55
2022-10-18T21:26:40.335Z,19.55
2022-10-18T21:29:08.090Z,22.88
2022-10-18T21:31:39.444Z,20.23
2022-10-18T21:34:20.363Z,19.05
2022-10-18T21:36:48.282Z,23.05
2022-10-18T21:39:18.106Z,22.45
2022-10-18T21:41:46.105Z,19.45
2022-10-18T21:44:13.227Z,23.67
2022-10-18T21:46:43.076Z,21.60
2022-10-18T21:49:10.354Z,16.08
2022-10-18T21:51:37.435Z,23.05
2022-10-18T21:54:04.825Z,17.80
2022-10-18T21:56:34.498Z,18.13
2022-10-18T21:59:01.916Z,18.52
2022-10-18T22:01:32.646Z,22.27
2022-10-18T22:04:01.460Z,21.05
2022-10-18T22:06:32.266Z,17.35
2022-10-18T22:09:01.954Z,27.17
2022-10-18T22:11:33.045Z,21.85
2022-10-18T22:14:00.063Z,19.23
2022-10-18T22:16:27.507Z,19.08
2022-10-18T22:18:59.198Z,11.85
2022-10-18T22:21:26.267Z,19.15
2022-10-18T22:23:57.126Z,14.90
2022-10-18T22:26:25.741Z,22.30
2022-10-18T22:28:58.120Z,19.50
2022-10-18T22:31:28.878Z,25.30
2022-10-18T22:33:57.876Z,18.42
2022-10-18T22:36:25.231Z,17.10
2022-10-18T22:38:52.296Z,18.35
2022-10-18T22:41:19.310Z,18.55
2022-10-18T22:43:47.828Z,21.20
2022-10-18T22:46:15.469Z,21.77
2022-10-18T22:48:43.216Z,14.82
2022-10-18T22:51:10.749Z,20.67
2022-10-18T22:53:39.768Z,13.27
2022-10-18T22:56:07.648Z,16.38
2022-10-18T22:58:34.767Z,14.02
2022-10-18T23:01:10.545Z,19.05
2022-10-18T23:03:38.490Z,23.85
2022-10-18T23:06:21.080Z,16.73
2022-10-18T23:08:48.293Z,18.42
2022-10-18T23:11:15.730Z,17.83
2022-10-18T23:13:42.677Z,15.68
2022-10-18T23:16:09.627Z,12.30
2022-10-18T23:18:37.069Z,14.88
2022-10-18T23:21:12.309Z,17.77
2022-10-18T23:23:41.647Z,14.07
2022-10-18T23:26:12.749Z,18.20
2022-10-18T23:28:43.608Z,11.75
2022-10-18T23:31:21.008Z,5.78
2022-10-18T23:33:49.938Z,9.02
2022-10-18T23:36:16.879Z,11.02
2022-10-18T23:38:43.987Z,10.65
2022-10-18T23:41:13.131Z,5.65
2022-10-18T23:43:40.276Z,4.80
2022-10-18T23:46:07.303Z,8.65
2022-10-18T23:48:34.411Z,5.80
2022-10-18T23:51:02.237Z,5.00
2022-10-18T23:53:29.417Z,3.60
2022-10-18T23:56:05.071Z,5.53
2022-10-18T23:58:34.130Z,5.10
